sensor_id;sensor_type;location;lat;lon;timestamp;P1;durP1;ratioP1;P2;durP2;ratioP2
37701;SDS011;23548;51.196;6.838;2024-01-11T00:00:16;57.75;;;26.50;;
37701;SDS011;23548;51.196;6.838;2024-01-11T00:02:44;59.25;;;25.85;;
37701;SDS011;23548;51.196;6.838;2024-01-11T00:05:10;60.25;;;25.85;;
37701;SDS011;23548;51.196;6.838;2024-01-11T00:07:36;57.30;;;26.40;;
37701;SDS011;23548;51.196;6.838;2024-01-11T00:10:02;54.05;;;25.92;;
37701;SDS011;23548;51.196;6.838;2024-01-11T00:12:28;56.80;;;26.00;;
37701;SDS011;23548;51.196;6.838;2024-01-11T00:14:55;61.13;;;26.52;;
37701;SDS011;23548;51.196;6.838;2024-01-11T00:17:20;55.47;;;25.65;;
37701;SDS011;23548;51.196;6.838;2024-01-11T00:19:46;59.28;;;25.98;;
37701;SDS011;23548;51.196;6.838;2024-01-11T00:22:13;55.38;;;27.17;;
37701;SDS011;23548;51.196;6.838;2024-01-11T00:24:40;60.95;;;25.95;;
37701;SDS011;23548;51.196;6.838;2024-01-11T00:27:06;56.67;;;25.65;;
37701;SDS011;23548;51.196;6.838;2024-01-11T00:29:32;53.50;;;25.60;;
37701;SDS011;23548;51.196;6.838;2024-01-11T00:31:57;55.78;;;25.67;;
37701;SDS011;23548;51.196;6.838;2024-01-11T00:34:23;56.38;;;25.58;;
37701;SDS011;23548;51.196;6.838;2024-01-11T00:36:49;56.08;;;25.85;;
37701;SDS011;23548;51.196;6.838;2024-01-11T00:39:15;53.38;;;24.40;;
37701;SDS011;23548;51.196;6.838;2024-01-11T00:41:41;59.15;;;25.98;;
37701;SDS011;23548;51.196;6.838;2024-01-11T00:44:07;63.22;;;26.85;;
37701;SDS011;23548;51.196;6.838;2024-01-11T00:46:34;62.20;;;25.98;;
37701;SDS011;23548;51.196;6.838;2024-01-11T00:49:03;53.55;;;25.20;;
37701;SDS011;23548;51.196;6.838;2024-01-11T00:51:29;57.30;;;25.95;;
37701;SDS011;23548;51.196;6.838;2024-01-11T00:53:55;55.33;;;26.30;;
37701;SDS011;23548;51.196;6.838;2024-01-11T00:56:21;58.30;;;27.38;;
37701;SDS011;23548;51.196;6.838;2024-01-11T00:58:46;55.47;;;25.98;;
37701;SDS011;23548;51.196;6.838;2024-01-11T01:01:12;51.38;;;25.33;;
37701;SDS011;23548;51.196;6.838;2024-01-11T01:03:39;59.45;;;25.23;;
37701;SDS011;23548;51.196;6.838;2024-01-11T01:06:05;55.17;;;25.85;;
37701;SDS011;23548;51.196;6.838;2024-01-11T01:08:31;56.28;;;25.27;;
37701;SDS011;23548;51.196;6.838;2024-01-11T01:10:57;56.60;;;24.75;;
37701;SDS011;23548;51.196;6.838;2024-01-11T01:13:22;60.60;;;27.15;;
37701;SDS011;23548;51.196;6.838;2024-01-11T01:15:49;59.60;;;25.33;;
37701;SDS011;23548;51.196;6.838;2024-01-11T01:18:15;55.25;;;24.58;;
37701;SDS011;23548;51.196;6.838;2024-01-11T01:20:41;52.83;;;25.08;;
37701;SDS011;23548;51.196;6.838;2024-01-11T01:23:07;56.15;;;25.63;;
37701;SDS011;23548;51.196;6.838;2024-01-11T01:25:32;48.85;;;24.52;;
37701;SDS011;23548;51.196;6.838;2024-01-11T01:27:58;55.22;;;25.27;;
37701;SDS011;23548;51.196;6.838;2024-01-11T01:30:25;60.95;;;25.15;;
37701;SDS011;23548;51.196;6.838;2024-01-11T01:32:51;54.97;;;25.58;;
37701;SDS011;23548;51.196;6.838;2024-01-11T01:35:17;60.08;;;26.45;;
37701;SDS011;23548;51.196;6.838;2024-01-11T01:37:43;56.38;;;25.95;;
37701;SDS011;23548;51.196;6.838;2024-01-11T01:40:09;55.22;;;24.88;;
37701;SDS011;23548;51.196;6.838;2024-01-11T01:42:36;59.85;;;25.73;;
37701;SDS011;23548;51.196;6.838;2024-01-11T01:45:08;58.75;;;26.35;;
37701;SDS011;23548;51.196;6.838;2024-01-11T01:47:34;54.85;;;25.80;;
37701;SDS011;23548;51.196;6.838;2024-01-11T01:49:59;60.78;;;26.55;;
37701;SDS011;23548;51.196;6.838;2024-01-11T01:52:25;56.63;;;27.08;;
37701;SDS011;23548;51.196;6.838;2024-01-11T01:54:51;55.67;;;26.08;;
37701;SDS011;23548;51.196;6.838;2024-01-11T01:57:18;53.08;;;25.20;;
37701;SDS011;23548;51.196;6.838;2024-01-11T01:59:45;52.95;;;25.63;;
37701;SDS011;23548;51.196;6.838;2024-01-11T02:02:14;53.22;;;24.73;;
37701;SDS011;23548;51.196;6.838;2024-01-11T02:04:41;61.97;;;27.00;;
37701;SDS011;23548;51.196;6.838;2024-01-11T02:07:07;59.03;;;26.00;;
37701;SDS011;23548;51.196;6.838;2024-01-11T02:09:34;55.72;;;26.40;;
37701;SDS011;23548;51.196;6.838;2024-01-11T02:15:23;60.13;;;27.48;;
37701;SDS011;23548;51.196;6.838;2024-01-11T02:17:49;58.92;;;27.02;;
37701;SDS011;23548;51.196;6.838;2024-01-11T02:20:15;67.07;;;28.38;;
37701;SDS011;23548;51.196;6.838;2024-01-11T02:22:41;61.88;;;27.17;;
37701;SDS011;23548;51.196;6.838;2024-01-11T02:25:12;53.35;;;26.02;;
37701;SDS011;23548;51.196;6.838;2024-01-11T02:27:45;63.97;;;27.38;;
37701;SDS011;23548;51.196;6.838;2024-01-11T02:30:14;56.47;;;25.17;;
37701;SDS011;23548;51.196;6.838;2024-01-11T02:32:44;60.00;;;27.60;;
37701;SDS011;23548;51.196;6.838;2024-01-11T02:35:16;55.60;;;25.17;;
37701;SDS011;23548;51.196;6.838;2024-01-11T02:37:43;56.92;;;26.42;;
37701;SDS011;23548;51.196;6.838;2024-01-11T02:40:10;56.53;;;25.80;;
37701;SDS011;23548;51.196;6.838;2024-01-11T02:42:38;59.00;;;25.40;;
37701;SDS011;23548;51.196;6.838;2024-01-11T02:45:04;62.20;;;28.25;;
37701;SDS011;23548;51.196;6.838;2024-01-11T02:47:30;60.42;;;28.27;;
37701;SDS011;23548;51.196;6.838;2024-01-11T02:49:56;59.58;;;28.27;;
37701;SDS011;23548;51.196;6.838;2024-01-11T02:52:22;60.05;;;26.65;;
37701;SDS011;23548;51.196;6.838;2024-01-11T02:54:48;64.07;;;29.40;;
37701;SDS011;23548;51.196;6.838;2024-01-11T02:57:14;60.42;;;26.90;;
37701;SDS011;23548;51.196;6.838;2024-01-11T02:59:40;61.80;;;27.90;;
37701;SDS011;23548;51.196;6.838;2024-01-11T03:02:07;62.05;;;27.38;;
37701;SDS011;23548;51.196;6.838;2024-01-11T03:04:32;66.30;;;29.10;;
37701;SDS011;23548;51.196;6.838;2024-01-11T03:06:58;59.30;;;27.67;;
37701;SDS011;23548;51.196;6.838;2024-01-11T03:09:24;63.03;;;29.35;;
37701;SDS011;23548;51.196;6.838;2024-01-11T03:11:50;61.85;;;28.35;;
37701;SDS011;23548;51.196;6.838;2024-01-11T03:14:15;64.07;;;27.98;;
37701;SDS011;23548;51.196;6.838;2024-01-11T03:16:41;58.55;;;28.23;;
37701;SDS011;23548;51.196;6.838;2024-01-11T03:19:07;62.35;;;28.23;;
37701;SDS011;23548;51.196;6.838;2024-01-11T03:21:33;64.78;;;29.48;;
37701;SDS011;23548;51.196;6.838;2024-01-11T03:23:59;64.03;;;28.88;;
37701;SDS011;23548;51.196;6.838;2024-01-11T03:26:25;64.43;;;29.30;;
37701;SDS011;23548;51.196;6.838;2024-01-11T03:28:51;68.55;;;29.90;;
37701;SDS011;23548;51.196;6.838;2024-01-11T03:31:16;60.63;;;29.35;;
37701;SDS011;23548;51.196;6.838;2024-01-11T03:33:42;64.68;;;28.60;;
37701;SDS011;23548;51.196;6.838;2024-01-11T03:36:08;67.60;;;30.20;;
37701;SDS011;23548;51.196;6.838;2024-01-11T03:38:34;62.22;;;29.85;;
37701;SDS011;23548;51.196;6.838;2024-01-11T03:41:01;62.25;;;28.95;;
37701;SDS011;23548;51.196;6.838;2024-01-11T03:43:27;67.05;;;31.27;;
37701;SDS011;23548;51.196;6.838;2024-01-11T03:45:53;61.58;;;29.88;;
37701;SDS011;23548;51.196;6.838;2024-01-11T03:48:19;65.68;;;30.15;;
37701;SDS011;23548;51.196;6.838;2024-01-11T03:50:44;66.80;;;30.30;;
37701;SDS011;23548;51.196;6.838;2024-01-11T03:53:10;68.95;;;31.90;;
37701;SDS011;23548;51.196;6.838;2024-01-11T03:55:36;69.05;;;30.67;;
37701;SDS011;23548;51.196;6.838;2024-01-11T03:58:02;66.25;;;29.75;;
37701;SDS011;23548;51.196;6.838;2024-01-11T04:00:27;63.75;;;30.65;;
37701;SDS011;23548;51.196;6.838;2024-01-11T04:02:53;67.82;;;29.77;;
37701;SDS011;23548;51.196;6.838;2024-01-11T04:05:19;71.00;;;31.48;;
37701;SDS011;23548;51.196;6.838;2024-01-11T04:07:44;66.15;;;29.98;;
37701;SDS011;23548;51.196;6.838;2024-01-11T04:10:10;69.47;;;30.73;;
37701;SDS011;23548;51.196;6.838;2024-01-11T04:12:36;72.90;;;31.05;;
37701;SDS011;23548;51.196;6.838;2024-01-11T04:15:02;68.07;;;30.33;;
37701;SDS011;23548;51.196;6.838;2024-01-11T04:17:29;68.78;;;30.42;;
37701;SDS011;23548;51.196;6.838;2024-01-11T04:19:54;62.50;;;30.48;;
37701;SDS011;23548;51.196;6.838;2024-01-11T04:22:20;63.92;;;31.60;;
37701;SDS011;23548;51.196;6.838;2024-01-11T04:24:46;72.00;;;32.53;;
37701;SDS011;23548;51.196;6.838;2024-01-11T04:27:11;67.55;;;30.90;;
37701;SDS011;23548;51.196;6.838;2024-01-11T04:29:37;70.53;;;31.35;;
37701;SDS011;23548;51.196;6.838;2024-01-11T04:32:03;70.55;;;30.50;;
37701;SDS011;23548;51.196;6.838;2024-01-11T04:34:29;67.00;;;29.55;;
37701;SDS011;23548;51.196;6.838;2024-01-11T04:36:55;71.25;;;30.02;;
37701;SDS011;23548;51.196;6.838;2024-01-11T04:39:20;69.88;;;29.70;;
37701;SDS011;23548;51.196;6.838;2024-01-11T04:41:46;69.05;;;32.17;;
37701;SDS011;23548;51.196;6.838;2024-01-11T04:44:13;63.67;;;29.50;;
37701;SDS011;23548;51.196;6.838;2024-01-11T04:46:38;72.60;;;32.40;;
37701;SDS011;23548;51.196;6.838;2024-01-11T04:49:05;65.10;;;29.70;;
37701;SDS011;23548;51.196;6.838;2024-01-11T04:51:30;68.70;;;31.40;;
37701;SDS011;23548;51.196;6.838;2024-01-11T04:53:56;73.60;;;30.70;;
37701;SDS011;23548;51.196;6.838;2024-01-11T04:56:22;66.15;;;30.92;;
37701;SDS011;23548;51.196;6.838;2024-01-11T04:58:48;63.55;;;30.73;;
37701;SDS011;23548;51.196;6.838;2024-01-11T05:01:14;65.10;;;29.45;;
37701;SDS011;23548;51.196;6.838;2024-01-11T05:03:41;69.63;;;30.27;;
37701;SDS011;23548;51.196;6.838;2024-01-11T05:06:07;68.50;;;31.13;;
37701;SDS011;23548;51.196;6.838;2024-01-11T05:08:33;66.43;;;30.27;;
37701;SDS011;23548;51.196;6.838;2024-01-11T05:10:59;63.92;;;30.00;;
37701;SDS011;23548;51.196;6.838;2024-01-11T05:13:25;67.53;;;31.05;;
37701;SDS011;23548;51.196;6.838;2024-01-11T05:15:51;66.65;;;31.25;;
37701;SDS011;23548;51.196;6.838;2024-01-11T05:18:17;64.10;;;30.23;;
37701;SDS011;23548;51.196;6.838;2024-01-11T05:20:42;73.53;;;31.75;;
37701;SDS011;23548;51.196;6.838;2024-01-11T05:23:08;64.80;;;30.88;;
37701;SDS011;23548;51.196;6.838;2024-01-11T05:25:34;69.57;;;30.35;;
37701;SDS011;23548;51.196;6.838;2024-01-11T05:28:00;68.47;;;31.95;;
37701;SDS011;23548;51.196;6.838;2024-01-11T05:30:26;74.35;;;30.60;;
37701;SDS011;23548;51.196;6.838;2024-01-11T05:32:53;69.68;;;31.73;;
37701;SDS011;23548;51.196;6.838;2024-01-11T05:35:19;72.00;;;30.95;;
37701;SDS011;23548;51.196;6.838;2024-01-11T05:37:45;70.88;;;31.42;;
37701;SDS011;23548;51.196;6.838;2024-01-11T05:40:11;64.80;;;31.63;;
37701;SDS011;23548;51.196;6.838;2024-01-11T05:42:37;65.63;;;29.38;;
37701;SDS011;23548;51.196;6.838;2024-01-11T05:45:04;67.53;;;30.95;;
37701;SDS011;23548;51.196;6.838;2024-01-11T05:47:30;61.67;;;28.92;;
37701;SDS011;23548;51.196;6.838;2024-01-11T05:49:56;71.53;;;31.42;;
37701;SDS011;23548;51.196;6.838;2024-01-11T05:52:22;69.32;;;32.10;;
37701;SDS011;23548;51.196;6.838;2024-01-11T05:54:47;67.28;;;31.90;;
37701;SDS011;23548;51.196;6.838;2024-01-11T05:57:13;69.18;;;31.90;;
37701;SDS011;23548;51.196;6.838;2024-01-11T05:59:45;71.80;;;32.67;;
37701;SDS011;23548;51.196;6.838;2024-01-11T06:02:11;67.15;;;30.73;;
37701;SDS011;23548;51.196;6.838;2024-01-11T06:04:38;68.75;;;32.28;;
37701;SDS011;23548;51.196;6.838;2024-01-11T06:07:04;63.67;;;30.00;;
37701;SDS011;23548;51.196;6.838;2024-01-11T06:09:30;66.72;;;31.58;;
37701;SDS011;23548;51.196;6.838;2024-01-11T06:11:56;75.95;;;32.45;;
37701;SDS011;23548;51.196;6.838;2024-01-11T06:14:24;69.75;;;32.58;;
37701;SDS011;23548;51.196;6.838;2024-01-11T06:16:50;71.80;;;32.60;;
37701;SDS011;23548;51.196;6.838;2024-01-11T06:19:16;77.05;;;33.80;;
37701;SDS011;23548;51.196;6.838;2024-01-11T06:21:42;76.88;;;32.63;;
37701;SDS011;23548;51.196;6.838;2024-01-11T06:24:07;68.93;;;31.45;;
37701;SDS011;23548;51.196;6.838;2024-01-11T06:26:33;73.90;;;31.83;;
37701;SDS011;23548;51.196;6.838;2024-01-11T06:28:59;72.18;;;33.85;;
37701;SDS011;23548;51.196;6.838;2024-01-11T06:31:24;72.70;;;32.63;;
37701;SDS011;23548;51.196;6.838;2024-01-11T06:33:52;76.05;;;32.67;;
37701;SDS011;23548;51.196;6.838;2024-01-11T06:36:18;70.90;;;31.73;;
37701;SDS011;23548;51.196;6.838;2024-01-11T06:38:43;74.07;;;33.67;;
37701;SDS011;23548;51.196;6.838;2024-01-11T06:41:09;71.25;;;31.92;;
37701;SDS011;23548;51.196;6.838;2024-01-11T06:43:35;70.95;;;34.35;;
37701;SDS011;23548;51.196;6.838;2024-01-11T06:46:04;78.45;;;34.78;;
37701;SDS011;23548;51.196;6.838;2024-01-11T06:48:31;71.50;;;33.13;;
37701;SDS011;23548;51.196;6.838;2024-01-11T06:50:57;80.32;;;35.33;;
37701;SDS011;23548;51.196;6.838;2024-01-11T06:53:22;73.00;;;33.53;;
37701;SDS011;23548;51.196;6.838;2024-01-11T06:55:48;80.93;;;35.90;;
37701;SDS011;23548;51.196;6.838;2024-01-11T06:58:15;75.85;;;33.65;;
37701;SDS011;23548;51.196;6.838;2024-01-11T07:00:41;79.10;;;34.20;;
37701;SDS011;23548;51.196;6.838;2024-01-11T07:03:11;74.75;;;32.97;;
37701;SDS011;23548;51.196;6.838;2024-01-11T07:05:37;76.85;;;33.80;;
37701;SDS011;23548;51.196;6.838;2024-01-11T07:08:03;81.75;;;33.28;;
37701;SDS011;23548;51.196;6.838;2024-01-11T07:10:29;76.65;;;33.75;;
37701;SDS011;23548;51.196;6.838;2024-01-11T07:12:55;74.13;;;34.58;;
37701;SDS011;23548;51.196;6.838;2024-01-11T07:15:21;71.85;;;34.63;;
37701;SDS011;23548;51.196;6.838;2024-01-11T07:17:46;73.20;;;32.80;;
37701;SDS011;23548;51.196;6.838;2024-01-11T07:20:12;82.13;;;35.13;;
37701;SDS011;23548;51.196;6.838;2024-01-11T07:22:40;75.82;;;32.95;;
37701;SDS011;23548;51.196;6.838;2024-01-11T07:25:06;73.47;;;33.22;;
37701;SDS011;23548;51.196;6.838;2024-01-11T07:27:32;75.70;;;33.60;;
37701;SDS011;23548;51.196;6.838;2024-01-11T07:29:58;76.68;;;33.40;;
37701;SDS011;23548;51.196;6.838;2024-01-11T07:32:24;76.43;;;32.92;;
37701;SDS011;23548;51.196;6.838;2024-01-11T07:34:50;76.75;;;33.53;;
37701;SDS011;23548;51.196;6.838;2024-01-11T07:37:15;70.50;;;33.55;;
37701;SDS011;23548;51.196;6.838;2024-01-11T07:39:41;80.97;;;34.58;;
37701;SDS011;23548;51.196;6.838;2024-01-11T07:42:07;79.93;;;34.60;;
37701;SDS011;23548;51.196;6.838;2024-01-11T07:44:33;80.43;;;34.95;;
37701;SDS011;23548;51.196;6.838;2024-01-11T07:46:58;81.22;;;34.60;;
37701;SDS011;23548;51.196;6.838;2024-01-11T07:49:24;79.22;;;34.28;;
37701;SDS011;23548;51.196;6.838;2024-01-11T07:51:50;81.40;;;34.47;;
37701;SDS011;23548;51.196;6.838;2024-01-11T07:54:17;75.72;;;33.88;;
37701;SDS011;23548;51.196;6.838;2024-01-11T07:56:42;79.20;;;35.33;;
37701;SDS011;23548;51.196;6.838;2024-01-11T07:59:08;78.47;;;34.70;;
37701;SDS011;23548;51.196;6.838;2024-01-11T08:01:39;75.75;;;34.10;;
37701;SDS011;23548;51.196;6.838;2024-01-11T08:04:05;80.95;;;34.17;;
37701;SDS011;23548;51.196;6.838;2024-01-11T08:06:30;71.68;;;34.50;;
37701;SDS011;23548;51.196;6.838;2024-01-11T08:08:57;83.22;;;35.75;;
37701;SDS011;23548;51.196;6.838;2024-01-11T08:11:22;80.28;;;35.60;;
37701;SDS011;23548;51.196;6.838;2024-01-11T08:13:48;85.03;;;36.72;;
37701;SDS011;23548;51.196;6.838;2024-01-11T08:16:18;80.45;;;34.95;;
37701;SDS011;23548;51.196;6.838;2024-01-11T08:18:44;82.20;;;35.35;;
37701;SDS011;23548;51.196;6.838;2024-01-11T08:21:10;78.97;;;35.17;;
37701;SDS011;23548;51.196;6.838;2024-01-11T08:23:37;82.82;;;34.33;;
37701;SDS011;23548;51.196;6.838;2024-01-11T08:26:12;80.68;;;33.97;;
37701;SDS011;23548;51.196;6.838;2024-01-11T08:28:39;79.20;;;35.65;;
37701;SDS011;23548;51.196;6.838;2024-01-11T08:31:05;79.20;;;35.05;;
37701;SDS011;23548;51.196;6.838;2024-01-11T08:33:31;74.57;;;34.53;;
37701;SDS011;23548;51.196;6.838;2024-01-11T08:35:57;84.03;;;36.42;;
37701;SDS011;23548;51.196;6.838;2024-01-11T08:38:23;80.38;;;35.90;;
37701;SDS011;23548;51.196;6.838;2024-01-11T08:40:49;80.47;;;36.38;;
37701;SDS011;23548;51.196;6.838;2024-01-11T08:43:16;83.45;;;36.95;;
37701;SDS011;23548;51.196;6.838;2024-01-11T08:45:42;83.00;;;36.75;;
37701;SDS011;23548;51.196;6.838;2024-01-11T08:48:08;78.47;;;37.78;;
37701;SDS011;23548;51.196;6.838;2024-01-11T08:50:35;75.82;;;36.83;;
37701;SDS011;23548;51.196;6.838;2024-01-11T08:53:00;88.05;;;37.33;;
37701;SDS011;23548;51.196;6.838;2024-01-11T08:55:26;87.65;;;37.92;;
37701;SDS011;23548;51.196;6.838;2024-01-11T08:57:52;88.75;;;37.22;;
37701;SDS011;23548;51.196;6.838;2024-01-11T09:00:18;90.03;;;38.97;;
37701;SDS011;23548;51.196;6.838;2024-01-11T09:02:44;79.78;;;37.22;;
37701;SDS011;23548;51.196;6.838;2024-01-11T09:05:10;77.47;;;36.28;;
37701;SDS011;23548;51.196;6.838;2024-01-11T09:07:36;78.22;;;36.25;;
37701;SDS011;23548;51.196;6.838;2024-01-11T09:10:02;80.63;;;35.70;;
37701;SDS011;23548;51.196;6.838;2024-01-11T09:12:28;73.28;;;35.40;;
37701;SDS011;23548;51.196;6.838;2024-01-11T09:14:54;72.05;;;33.85;;
37701;SDS011;23548;51.196;6.838;2024-01-11T09:17:20;75.00;;;34.00;;
37701;SDS011;23548;51.196;6.838;2024-01-11T09:19:46;76.47;;;34.90;;
37701;SDS011;23548;51.196;6.838;2024-01-11T09:22:12;74.10;;;33.22;;
37701;SDS011;23548;51.196;6.838;2024-01-11T09:24:38;72.50;;;33.28;;
37701;SDS011;23548;51.196;6.838;2024-01-11T09:27:03;71.45;;;33.28;;
37701;SDS011;23548;51.196;6.838;2024-01-11T09:29:30;72.32;;;33.35;;
37701;SDS011;23548;51.196;6.838;2024-01-11T09:31:55;67.75;;;33.08;;
37701;SDS011;23548;51.196;6.838;2024-01-11T09:34:21;76.32;;;34.22;;
37701;SDS011;23548;51.196;6.838;2024-01-11T09:36:47;72.78;;;33.33;;
37701;SDS011;23548;51.196;6.838;2024-01-11T09:39:12;80.55;;;34.35;;
37701;SDS011;23548;51.196;6.838;2024-01-11T09:41:40;71.65;;;32.97;;
37701;SDS011;23548;51.196;6.838;2024-01-11T09:44:12;73.00;;;33.70;;
37701;SDS011;23548;51.196;6.838;2024-01-11T09:46:39;73.50;;;33.97;;
37701;SDS011;23548;51.196;6.838;2024-01-11T09:49:04;77.53;;;35.13;;
37701;SDS011;23548;51.196;6.838;2024-01-11T09:51:32;73.60;;;34.55;;
37701;SDS011;23548;51.196;6.838;2024-01-11T09:54:02;77.88;;;36.05;;
37701;SDS011;23548;51.196;6.838;2024-01-11T09:56:28;73.43;;;33.10;;
37701;SDS011;23548;51.196;6.838;2024-01-11T09:58:54;69.25;;;33.88;;
37701;SDS011;23548;51.196;6.838;2024-01-11T10:01:20;72.07;;;33.83;;
37701;SDS011;23548;51.196;6.838;2024-01-11T10:03:47;71.47;;;33.67;;
37701;SDS011;23548;51.196;6.838;2024-01-11T10:06:12;76.97;;;35.33;;
37701;SDS011;23548;51.196;6.838;2024-01-11T10:08:41;77.30;;;35.92;;
37701;SDS011;23548;51.196;6.838;2024-01-11T10:11:06;67.22;;;33.35;;
37701;SDS011;23548;51.196;6.838;2024-01-11T10:13:32;78.88;;;35.08;;
37701;SDS011;23548;51.196;6.838;2024-01-11T10:16:10;72.82;;;33.88;;
37701;SDS011;23548;51.196;6.838;2024-01-11T10:18:40;75.00;;;34.42;;
37701;SDS011;23548;51.196;6.838;2024-01-11T10:21:07;71.72;;;33.95;;
37701;SDS011;23548;51.196;6.838;2024-01-11T10:23:34;75.28;;;35.53;;
37701;SDS011;23548;51.196;6.838;2024-01-11T10:26:01;71.30;;;34.20;;
37701;SDS011;23548;51.196;6.838;2024-01-11T10:28:27;75.43;;;34.17;;
37701;SDS011;23548;51.196;6.838;2024-01-11T10:30:53;75.28;;;35.75;;
37701;SDS011;23548;51.196;6.838;2024-01-11T10:33:20;74.60;;;34.30;;
37701;SDS011;23548;51.196;6.838;2024-01-11T10:35:47;77.20;;;35.08;;
37701;SDS011;23548;51.196;6.838;2024-01-11T10:38:14;73.72;;;35.38;;
37701;SDS011;23548;51.196;6.838;2024-01-11T10:40:41;71.57;;;35.58;;
37701;SDS011;23548;51.196;6.838;2024-01-11T10:43:08;65.72;;;33.53;;
37701;SDS011;23548;51.196;6.838;2024-01-11T10:45:36;78.95;;;35.70;;
37701;SDS011;23548;51.196;6.838;2024-01-11T10:48:07;74.38;;;33.97;;
37701;SDS011;23548;51.196;6.838;2024-01-11T10:50:41;69.07;;;34.20;;
37701;SDS011;23548;51.196;6.838;2024-01-11T10:55:59;82.72;;;35.53;;
37701;SDS011;23548;51.196;6.838;2024-01-11T10:58:26;81.13;;;35.88;;
37701;SDS011;23548;51.196;6.838;2024-01-11T11:00:53;75.53;;;35.45;;
37701;SDS011;23548;51.196;6.838;2024-01-11T11:03:22;79.00;;;35.78;;
37701;SDS011;23548;51.196;6.838;2024-01-11T11:05:50;79.63;;;34.80;;
37701;SDS011;23548;51.196;6.838;2024-01-11T11:08:18;75.15;;;34.92;;
37701;SDS011;23548;51.196;6.838;2024-01-11T11:10:46;70.70;;;34.47;;
37701;SDS011;23548;51.196;6.838;2024-01-11T11:13:14;69.40;;;34.63;;
37701;SDS011;23548;51.196;6.838;2024-01-11T11:15:42;72.72;;;35.45;;
37701;SDS011;23548;51.196;6.838;2024-01-11T11:18:12;74.30;;;34.95;;
37701;SDS011;23548;51.196;6.838;2024-01-11T11:20:39;73.25;;;31.95;;
37701;SDS011;23548;51.196;6.838;2024-01-11T11:23:07;71.80;;;33.70;;
37701;SDS011;23548;51.196;6.838;2024-01-11T11:25:37;71.47;;;32.65;;
37701;SDS011;23548;51.196;6.838;2024-01-11T11:28:05;68.38;;;31.92;;
37701;SDS011;23548;51.196;6.838;2024-01-11T11:30:31;63.08;;;31.30;;
37701;SDS011;23548;51.196;6.838;2024-01-11T11:33:19;67.55;;;31.90;;
37701;SDS011;23548;51.196;6.838;2024-01-11T11:35:47;65.13;;;32.72;;
37701;SDS011;23548;51.196;6.838;2024-01-11T11:38:17;62.90;;;31.70;;
37701;SDS011;23548;51.196;6.838;2024-01-11T11:40:47;66.28;;;30.70;;
37701;SDS011;23548;51.196;6.838;2024-01-11T11:43:16;63.92;;;30.38;;
37701;SDS011;23548;51.196;6.838;2024-01-11T11:45:45;63.78;;;31.55;;
37701;SDS011;23548;51.196;6.838;2024-01-11T11:51:16;60.63;;;31.15;;
37701;SDS011;23548;51.196;6.838;2024-01-11T11:53:43;54.00;;;27.55;;
37701;SDS011;23548;51.196;6.838;2024-01-11T11:56:10;67.15;;;29.92;;
37701;SDS011;23548;51.196;6.838;2024-01-11T11:58:37;60.30;;;29.45;;
37701;SDS011;23548;51.196;6.838;2024-01-11T12:01:07;59.33;;;29.23;;
37701;SDS011;23548;51.196;6.838;2024-01-11T12:03:43;52.45;;;28.50;;
37701;SDS011;23548;51.196;6.838;2024-01-11T12:06:14;56.03;;;27.05;;
37701;SDS011;23548;51.196;6.838;2024-01-11T12:08:45;58.22;;;28.38;;
37701;SDS011;23548;51.196;6.838;2024-01-11T12:11:16;54.08;;;27.23;;
37701;SDS011;23548;51.196;6.838;2024-01-11T12:13:44;56.90;;;28.15;;
37701;SDS011;23548;51.196;6.838;2024-01-11T12:16:10;58.03;;;28.80;;
37701;SDS011;23548;51.196;6.838;2024-01-11T12:18:36;56.83;;;27.05;;
37701;SDS011;23548;51.196;6.838;2024-01-11T12:21:02;57.42;;;26.58;;
37701;SDS011;23548;51.196;6.838;2024-01-11T12:23:28;59.45;;;27.23;;
37701;SDS011;23548;51.196;6.838;2024-01-11T12:25:58;52.08;;;25.83;;
37701;SDS011;23548;51.196;6.838;2024-01-11T12:28:25;55.88;;;27.25;;
37701;SDS011;23548;51.196;6.838;2024-01-11T12:30:51;56.33;;;28.50;;
37701;SDS011;23548;51.196;6.838;2024-01-11T12:33:17;51.88;;;27.02;;
37701;SDS011;23548;51.196;6.838;2024-01-11T12:35:43;57.95;;;29.25;;
37701;SDS011;23548;51.196;6.838;2024-01-11T12:38:10;55.75;;;27.98;;
37701;SDS011;23548;51.196;6.838;2024-01-11T12:40:36;55.65;;;26.92;;
37701;SDS011;23548;51.196;6.838;2024-01-11T12:43:03;60.25;;;28.15;;
37701;SDS011;23548;51.196;6.838;2024-01-11T12:45:32;62.85;;;27.67;;
37701;SDS011;23548;51.196;6.838;2024-01-11T12:47:59;55.00;;;27.45;;
37701;SDS011;23548;51.196;6.838;2024-01-11T12:50:26;53.47;;;27.50;;
37701;SDS011;23548;51.196;6.838;2024-01-11T12:53:11;55.33;;;26.95;;
37701;SDS011;23548;51.196;6.838;2024-01-11T12:55:47;51.10;;;26.15;;
37701;SDS011;23548;51.196;6.838;2024-01-11T12:58:19;56.35;;;27.02;;
37701;SDS011;23548;51.196;6.838;2024-01-11T13:00:46;61.70;;;27.55;;
37701;SDS011;23548;51.196;6.838;2024-01-11T13:03:13;56.10;;;26.77;;
37701;SDS011;23548;51.196;6.838;2024-01-11T13:05:39;57.10;;;27.50;;
37701;SDS011;23548;51.196;6.838;2024-01-11T13:08:08;56.38;;;27.45;;
37701;SDS011;23548;51.196;6.838;2024-01-11T13:10:34;53.25;;;26.70;;
37701;SDS011;23548;51.196;6.838;2024-01-11T13:13:01;52.42;;;26.35;;
37701;SDS011;23548;51.196;6.838;2024-01-11T13:15:27;49.95;;;23.63;;
37701;SDS011;23548;51.196;6.838;2024-01-11T13:18:00;52.88;;;25.35;;
37701;SDS011;23548;51.196;6.838;2024-01-11T13:20:26;49.75;;;25.88;;
37701;SDS011;23548;51.196;6.838;2024-01-11T13:23:10;51.95;;;25.48;;
37701;SDS011;23548;51.196;6.838;2024-01-11T13:25:39;50.65;;;25.90;;
37701;SDS011;23548;51.196;6.838;2024-01-11T13:28:06;50.78;;;25.52;;
37701;SDS011;23548;51.196;6.838;2024-01-11T13:30:31;54.70;;;27.25;;
37701;SDS011;23548;51.196;6.838;2024-01-11T13:32:58;59.45;;;29.50;;
37701;SDS011;23548;51.196;6.838;2024-01-11T13:35:24;61.22;;;30.70;;
37701;SDS011;23548;51.196;6.838;2024-01-11T13:37:50;69.88;;;30.73;;
37701;SDS011;23548;51.196;6.838;2024-01-11T13:40:16;55.05;;;27.55;;
37701;SDS011;23548;51.196;6.838;2024-01-11T13:42:41;61.03;;;30.83;;
37701;SDS011;23548;51.196;6.838;2024-01-11T13:45:08;57.05;;;28.13;;
37701;SDS011;23548;51.196;6.838;2024-01-11T13:47:34;62.55;;;29.92;;
37701;SDS011;23548;51.196;6.838;2024-01-11T13:50:00;60.20;;;30.50;;
37701;SDS011;23548;51.196;6.838;2024-01-11T13:52:26;57.40;;;29.42;;
37701;SDS011;23548;51.196;6.838;2024-01-11T13:54:52;58.13;;;29.67;;
37701;SDS011;23548;51.196;6.838;2024-01-11T13:57:18;57.58;;;28.50;;
37701;SDS011;23548;51.196;6.838;2024-01-11T13:59:43;58.47;;;28.05;;
37701;SDS011;23548;51.196;6.838;2024-01-11T14:02:09;59.50;;;28.90;;
37701;SDS011;23548;51.196;6.838;2024-01-11T14:04:35;61.63;;;29.50;;
37701;SDS011;23548;51.196;6.838;2024-01-11T14:07:01;57.03;;;30.02;;
37701;SDS011;23548;51.196;6.838;2024-01-11T14:09:28;61.92;;;28.77;;
37701;SDS011;23548;51.196;6.838;2024-01-11T14:11:54;58.78;;;29.05;;
37701;SDS011;23548;51.196;6.838;2024-01-11T14:14:22;56.38;;;27.95;;
37701;SDS011;23548;51.196;6.838;2024-01-11T14:16:51;58.83;;;28.73;;
37701;SDS011;23548;51.196;6.838;2024-01-11T14:19:17;54.50;;;26.35;;
37701;SDS011;23548;51.196;6.838;2024-01-11T14:21:43;52.60;;;25.45;;
37701;SDS011;23548;51.196;6.838;2024-01-11T14:24:08;50.15;;;25.25;;
37701;SDS011;23548;51.196;6.838;2024-01-11T14:26:34;51.78;;;26.33;;